Glenwood Springs, Colorado
Current Conditions -  °F | °C
As of 4:53 AM on Sunday 28 Dec 2014 (Local Time) from KRIL Reporting Station
Overcast Overcast  
Wind Chill: 14°   Ceiling: 6500
Heat Index: 14°   Visibility: 10mi
Dew Point:   Wind: 0mph
Humidity: 71%   Direction: NA
Pressure: 30.19"   Gusts: NA
Location:  39.55°N, 107.32°W
Report Text: KRIL 281153Z AUTO 00000KT 10SM OVC065 M10/M14 A3019 RMK AO2 SLP275 T11001144 11094 21117 58012
Loading
Personal Weather Stations






























Interactive Weather Map New forecast layout! Learn more

10-Day Weather Forecast

Advertisements
Track Severe Weather on mobile